sensor_id;sensor_type;location;lat;lon;timestamp;P1;durP1;ratioP1;P2;durP2;ratioP2
72394;SDS011;60384;48.152;11.614;2024-03-23T00:53:01;4.70;;;2.10;;
72394;SDS011;60384;48.152;11.614;2024-03-23T00:56:04;5.45;;;2.15;;
72394;SDS011;60384;48.152;11.614;2024-03-23T00:59:05;5.90;;;2.50;;
72394;SDS011;60384;48.152;11.614;2024-03-23T01:05:09;4.75;;;2.40;;
72394;SDS011;60384;48.152;11.614;2024-03-23T01:08:12;4.53;;;2.17;;
72394;SDS011;60384;48.152;11.614;2024-03-23T01:11:17;4.28;;;1.92;;
72394;SDS011;60384;48.152;11.614;2024-03-23T01:15:02;4.72;;;2.00;;
72394;SDS011;60384;48.152;11.614;2024-03-23T01:18:28;4.47;;;1.90;;
72394;SDS011;60384;48.152;11.614;2024-03-23T01:30:11;4.65;;;1.73;;
72394;SDS011;60384;48.152;11.614;2024-03-23T01:34:08;5.00;;;2.15;;
72394;SDS011;60384;48.152;11.614;2024-03-23T01:37:55;6.03;;;2.08;;
72394;SDS011;60384;48.152;11.614;2024-03-23T01:41:13;3.00;;;1.55;;
72394;SDS011;60384;48.152;11.614;2024-03-23T01:44:54;4.05;;;1.73;;
72394;SDS011;60384;48.152;11.614;2024-03-23T01:49:08;5.55;;;2.13;;
72394;SDS011;60384;48.152;11.614;2024-03-23T01:52:26;5.22;;;2.00;;
72394;SDS011;60384;48.152;11.614;2024-03-23T01:56:25;3.88;;;1.73;;
72394;SDS011;60384;48.152;11.614;2024-03-23T02:00:13;3.78;;;1.65;;
72394;SDS011;60384;48.152;11.614;2024-03-23T02:03:32;5.85;;;1.90;;
72394;SDS011;60384;48.152;11.614;2024-03-23T02:11:23;4.15;;;1.90;;
72394;SDS011;60384;48.152;11.614;2024-03-23T02:14:35;4.75;;;1.80;;
72394;SDS011;60384;48.152;11.614;2024-03-23T02:17:49;5.75;;;1.75;;
72394;SDS011;60384;48.152;11.614;2024-03-23T02:21:00;4.85;;;1.88;;
72394;SDS011;60384;48.152;11.614;2024-03-23T02:24:43;4.28;;;1.80;;
72394;SDS011;60384;48.152;11.614;2024-03-23T02:28:19;2.90;;;1.70;;
72394;SDS011;60384;48.152;11.614;2024-03-23T02:31:38;6.07;;;1.75;;
72394;SDS011;60384;48.152;11.614;2024-03-23T02:34:42;5.60;;;1.98;;
72394;SDS011;60384;48.152;11.614;2024-03-23T02:37:46;4.22;;;1.77;;
72394;SDS011;60384;48.152;11.614;2024-03-23T02:40:50;3.08;;;1.58;;
72394;SDS011;60384;48.152;11.614;2024-03-23T02:43:55;3.78;;;1.60;;
72394;SDS011;60384;48.152;11.614;2024-03-23T02:46:59;4.03;;;1.90;;
72394;SDS011;60384;48.152;11.614;2024-03-23T02:50:05;4.97;;;1.90;;
72394;SDS011;60384;48.152;11.614;2024-03-23T02:53:12;4.38;;;1.60;;
72394;SDS011;60384;48.152;11.614;2024-03-23T02:56:22;4.72;;;1.88;;
72394;SDS011;60384;48.152;11.614;2024-03-23T02:59:25;3.95;;;1.52;;
72394;SDS011;60384;48.152;11.614;2024-03-23T03:02:37;4.80;;;1.90;;
72394;SDS011;60384;48.152;11.614;2024-03-23T03:05:54;4.68;;;1.70;;
72394;SDS011;60384;48.152;11.614;2024-03-23T03:12:45;4.43;;;1.85;;
72394;SDS011;60384;48.152;11.614;2024-03-23T03:19:41;4.85;;;2.03;;
72394;SDS011;60384;48.152;11.614;2024-03-23T03:23:21;3.97;;;2.00;;
72394;SDS011;60384;48.152;11.614;2024-03-23T03:27:22;4.53;;;2.03;;
72394;SDS011;60384;48.152;11.614;2024-03-23T03:30:41;6.72;;;2.38;;
72394;SDS011;60384;48.152;11.614;2024-03-23T03:33:51;4.43;;;2.00;;
72394;SDS011;60384;48.152;11.614;2024-03-23T03:37:31;3.00;;;1.60;;
72394;SDS011;60384;48.152;11.614;2024-03-23T03:41:02;4.60;;;1.92;;
72394;SDS011;60384;48.152;11.614;2024-03-23T03:44:15;5.15;;;2.30;;
72394;SDS011;60384;48.152;11.614;2024-03-23T03:51:27;6.03;;;2.00;;
72394;SDS011;60384;48.152;11.614;2024-03-23T03:54:44;4.82;;;1.98;;
72394;SDS011;60384;48.152;11.614;2024-03-23T03:58:14;4.10;;;2.00;;
72394;SDS011;60384;48.152;11.614;2024-03-23T04:01:42;5.50;;;2.30;;
72394;SDS011;60384;48.152;11.614;2024-03-23T04:04:54;4.90;;;2.10;;
72394;SDS011;60384;48.152;11.614;2024-03-23T04:08:41;3.92;;;1.63;;
72394;SDS011;60384;48.152;11.614;2024-03-23T04:11:55;3.67;;;1.65;;
72394;SDS011;60384;48.152;11.614;2024-03-23T04:15:27;5.18;;;2.03;;
72394;SDS011;60384;48.152;11.614;2024-03-23T04:18:56;5.70;;;1.77;;
72394;SDS011;60384;48.152;11.614;2024-03-23T04:26:14;4.25;;;1.73;;
72394;SDS011;60384;48.152;11.614;2024-03-23T04:30:09;3.50;;;1.63;;
72394;SDS011;60384;48.152;11.614;2024-03-23T04:33:34;4.95;;;1.73;;
72394;SDS011;60384;48.152;11.614;2024-03-23T04:36:37;5.10;;;1.90;;
72394;SDS011;60384;48.152;11.614;2024-03-23T04:39:42;3.45;;;1.83;;
72394;SDS011;60384;48.152;11.614;2024-03-23T04:42:45;3.00;;;1.60;;
72394;SDS011;60384;48.152;11.614;2024-03-23T04:45:51;4.25;;;1.63;;
72394;SDS011;60384;48.152;11.614;2024-03-23T04:48:56;3.80;;;1.75;;
72394;SDS011;60384;48.152;11.614;2024-03-23T04:52:01;4.45;;;1.80;;
72394;SDS011;60384;48.152;11.614;2024-03-23T04:55:06;5.15;;;1.98;;
72394;SDS011;60384;48.152;11.614;2024-03-23T04:58:09;4.80;;;1.88;;
72394;SDS011;60384;48.152;11.614;2024-03-23T05:01:10;3.45;;;1.42;;
72394;SDS011;60384;48.152;11.614;2024-03-23T05:04:22;3.50;;;1.58;;
72394;SDS011;60384;48.152;11.614;2024-03-23T05:07:42;4.97;;;2.33;;
72394;SDS011;60384;48.152;11.614;2024-03-23T05:11:10;5.28;;;1.90;;
72394;SDS011;60384;48.152;11.614;2024-03-23T05:17:59;3.97;;;1.67;;
72394;SDS011;60384;48.152;11.614;2024-03-23T05:21:08;4.97;;;1.48;;
72394;SDS011;60384;48.152;11.614;2024-03-23T05:24:36;4.13;;;1.98;;
72394;SDS011;60384;48.152;11.614;2024-03-23T05:27:46;5.10;;;1.60;;
72394;SDS011;60384;48.152;11.614;2024-03-23T05:31:22;3.10;;;1.50;;
72394;SDS011;60384;48.152;11.614;2024-03-23T05:34:40;2.65;;;1.40;;
72394;SDS011;60384;48.152;11.614;2024-03-23T05:37:57;5.05;;;1.88;;
72394;SDS011;60384;48.152;11.614;2024-03-23T05:41:23;5.82;;;1.98;;
72394;SDS011;60384;48.152;11.614;2024-03-23T05:44:43;3.78;;;1.70;;
72394;SDS011;60384;48.152;11.614;2024-03-23T05:47:56;3.83;;;1.35;;
72394;SDS011;60384;48.152;11.614;2024-03-23T05:51:25;3.00;;;1.60;;
72394;SDS011;60384;48.152;11.614;2024-03-23T05:54:41;4.28;;;1.45;;
72394;SDS011;60384;48.152;11.614;2024-03-23T05:58:08;3.38;;;1.35;;
72394;SDS011;60384;48.152;11.614;2024-03-23T06:01:32;3.78;;;1.63;;
72394;SDS011;60384;48.152;11.614;2024-03-23T06:05:26;3.90;;;1.70;;
72394;SDS011;60384;48.152;11.614;2024-03-23T06:09:26;4.18;;;1.60;;
72394;SDS011;60384;48.152;11.614;2024-03-23T06:12:40;5.05;;;1.80;;
72394;SDS011;60384;48.152;11.614;2024-03-23T06:15:56;4.25;;;1.67;;
72394;SDS011;60384;48.152;11.614;2024-03-23T06:19:04;4.90;;;1.58;;
72394;SDS011;60384;48.152;11.614;2024-03-23T06:22:24;3.30;;;1.40;;
72394;SDS011;60384;48.152;11.614;2024-03-23T06:25:56;3.35;;;1.50;;
72394;SDS011;60384;48.152;11.614;2024-03-23T06:31:40;3.08;;;1.30;;
72394;SDS011;60384;48.152;11.614;2024-03-23T06:33:30;3.55;;;1.50;;
72394;SDS011;60384;48.152;11.614;2024-03-23T06:36:49;4.68;;;1.42;;
72394;SDS011;60384;48.152;11.614;2024-03-23T06:39:57;3.20;;;1.45;;
72394;SDS011;60384;48.152;11.614;2024-03-23T06:43:31;4.05;;;1.60;;
72394;SDS011;60384;48.152;11.614;2024-03-23T06:46:36;2.95;;;1.60;;
72394;SDS011;60384;48.152;11.614;2024-03-23T06:49:42;4.25;;;1.50;;
72394;SDS011;60384;48.152;11.614;2024-03-23T06:52:46;4.57;;;1.60;;
72394;SDS011;60384;48.152;11.614;2024-03-23T06:55:49;4.68;;;1.50;;
72394;SDS011;60384;48.152;11.614;2024-03-23T06:58:59;3.90;;;1.52;;
72394;SDS011;60384;48.152;11.614;2024-03-23T07:02:00;4.65;;;1.60;;
72394;SDS011;60384;48.152;11.614;2024-03-23T07:05:06;3.67;;;1.52;;
72394;SDS011;60384;48.152;11.614;2024-03-23T07:08:32;2.95;;;1.30;;
72394;SDS011;60384;48.152;11.614;2024-03-23T07:11:48;2.38;;;1.23;;
72394;SDS011;60384;48.152;11.614;2024-03-23T07:15:12;4.22;;;1.63;;
72394;SDS011;60384;48.152;11.614;2024-03-23T07:22:29;4.18;;;1.50;;
72394;SDS011;60384;48.152;11.614;2024-03-23T07:30:56;6.13;;;1.67;;
72394;SDS011;60384;48.152;11.614;2024-03-23T07:33:45;3.15;;;1.40;;
72394;SDS011;60384;48.152;11.614;2024-03-23T07:45:11;2.60;;;1.38;;
72394;SDS011;60384;48.152;11.614;2024-03-23T07:48:33;3.65;;;1.40;;
72394;SDS011;60384;48.152;11.614;2024-03-23T07:51:39;4.07;;;1.48;;
72394;SDS011;60384;48.152;11.614;2024-03-23T07:54:52;3.75;;;1.27;;
72394;SDS011;60384;48.152;11.614;2024-03-23T07:58:17;4.47;;;1.30;;
72394;SDS011;60384;48.152;11.614;2024-03-23T08:01:24;3.30;;;1.17;;
72394;SDS011;60384;48.152;11.614;2024-03-23T08:04:26;5.18;;;1.58;;
72394;SDS011;60384;48.152;11.614;2024-03-23T08:07:29;2.45;;;1.35;;
72394;SDS011;60384;48.152;11.614;2024-03-23T08:10:35;4.55;;;1.98;;
72394;SDS011;60384;48.152;11.614;2024-03-23T08:13:38;2.80;;;1.25;;
72394;SDS011;60384;48.152;11.614;2024-03-23T08:16:46;4.80;;;1.42;;
72394;SDS011;60384;48.152;11.614;2024-03-23T08:19:49;9.20;;;2.33;;
72394;SDS011;60384;48.152;11.614;2024-03-23T08:23:17;3.55;;;1.42;;
72394;SDS011;60384;48.152;11.614;2024-03-23T08:26:22;5.15;;;2.20;;
72394;SDS011;60384;48.152;11.614;2024-03-23T08:29:30;2.22;;;1.10;;
72394;SDS011;60384;48.152;11.614;2024-03-23T08:32:33;2.10;;;1.15;;
72394;SDS011;60384;48.152;11.614;2024-03-23T08:35:41;3.00;;;1.00;;
72394;SDS011;60384;48.152;11.614;2024-03-23T08:38:53;3.47;;;1.50;;
72394;SDS011;60384;48.152;11.614;2024-03-23T08:42:22;1.85;;;0.90;;
72394;SDS011;60384;48.152;11.614;2024-03-23T08:58:19;1.55;;;0.68;;
72394;SDS011;60384;48.152;11.614;2024-03-23T09:01:21;3.92;;;1.00;;
72394;SDS011;60384;48.152;11.614;2024-03-23T09:04:24;3.63;;;1.30;;
72394;SDS011;60384;48.152;11.614;2024-03-23T09:07:26;2.97;;;1.30;;
72394;SDS011;60384;48.152;11.614;2024-03-23T09:10:31;3.83;;;1.35;;
72394;SDS011;60384;48.152;11.614;2024-03-23T09:13:32;1.92;;;0.70;;
72394;SDS011;60384;48.152;11.614;2024-03-23T09:16:38;4.60;;;1.92;;
72394;SDS011;60384;48.152;11.614;2024-03-23T09:19:39;1.02;;;0.63;;
72394;SDS011;60384;48.152;11.614;2024-03-23T09:22:41;6.78;;;2.10;;
72394;SDS011;60384;48.152;11.614;2024-03-23T09:29:04;3.92;;;1.55;;
72394;SDS011;60384;48.152;11.614;2024-03-23T09:32:07;7.72;;;2.00;;
72394;SDS011;60384;48.152;11.614;2024-03-23T09:35:11;4.93;;;2.40;;
72394;SDS011;60384;48.152;11.614;2024-03-23T09:38:26;3.17;;;1.60;;
72394;SDS011;60384;48.152;11.614;2024-03-23T09:41:33;4.72;;;2.20;;
72394;SDS011;60384;48.152;11.614;2024-03-23T09:44:37;2.95;;;1.17;;
72394;SDS011;60384;48.152;11.614;2024-03-23T09:47:41;2.58;;;1.30;;
72394;SDS011;60384;48.152;11.614;2024-03-23T09:50:46;2.80;;;1.08;;
72394;SDS011;60384;48.152;11.614;2024-03-23T09:53:49;1.35;;;0.55;;
72394;SDS011;60384;48.152;11.614;2024-03-23T09:57:03;0.88;;;0.68;;
72394;SDS011;60384;48.152;11.614;2024-03-23T10:00:48;2.22;;;0.90;;
72394;SDS011;60384;48.152;11.614;2024-03-23T10:04:07;1.50;;;0.80;;
72394;SDS011;60384;48.152;11.614;2024-03-23T10:07:25;0.55;;;0.45;;
72394;SDS011;60384;48.152;11.614;2024-03-23T10:10:30;3.38;;;1.10;;
72394;SDS011;60384;48.152;11.614;2024-03-23T10:13:39;2.17;;;0.75;;
72394;SDS011;60384;48.152;11.614;2024-03-23T10:20:41;3.08;;;0.80;;
72394;SDS011;60384;48.152;11.614;2024-03-23T10:23:55;1.35;;;0.65;;
72394;SDS011;60384;48.152;11.614;2024-03-23T10:26:57;1.75;;;0.60;;
72394;SDS011;60384;48.152;11.614;2024-03-23T10:30:12;1.02;;;0.30;;
72394;SDS011;60384;48.152;11.614;2024-03-23T10:33:29;2.10;;;0.77;;
72394;SDS011;60384;48.152;11.614;2024-03-23T10:36:47;2.53;;;0.98;;
72394;SDS011;60384;48.152;11.614;2024-03-23T10:40:19;1.65;;;0.77;;
72394;SDS011;60384;48.152;11.614;2024-03-23T10:44:01;1.90;;;0.70;;
72394;SDS011;60384;48.152;11.614;2024-03-23T10:48:12;2.45;;;1.05;;
72394;SDS011;60384;48.152;11.614;2024-03-23T10:55:49;1.65;;;0.60;;
72394;SDS011;60384;48.152;11.614;2024-03-23T10:58:57;2.85;;;0.68;;
72394;SDS011;60384;48.152;11.614;2024-03-23T11:02:02;1.17;;;0.47;;
72394;SDS011;60384;48.152;11.614;2024-03-23T11:08:34;0.55;;;0.32;;
72394;SDS011;60384;48.152;11.614;2024-03-23T11:11:47;1.23;;;0.55;;
72394;SDS011;60384;48.152;11.614;2024-03-23T11:14:54;1.70;;;0.60;;
72394;SDS011;60384;48.152;11.614;2024-03-23T11:18:04;1.83;;;0.70;;
72394;SDS011;60384;48.152;11.614;2024-03-23T11:21:10;1.40;;;0.68;;
72394;SDS011;60384;48.152;11.614;2024-03-23T11:24:17;1.10;;;0.35;;
72394;SDS011;60384;48.152;11.614;2024-03-23T11:27:33;2.42;;;0.70;;
72394;SDS011;60384;48.152;11.614;2024-03-23T11:31:01;2.88;;;1.10;;
72394;SDS011;60384;48.152;11.614;2024-03-23T11:34:40;1.77;;;0.70;;
72394;SDS011;60384;48.152;11.614;2024-03-23T11:38:07;1.55;;;0.43;;
72394;SDS011;60384;48.152;11.614;2024-03-23T11:41:11;1.30;;;0.50;;
72394;SDS011;60384;48.152;11.614;2024-03-23T11:44:31;1.48;;;0.70;;
72394;SDS011;60384;48.152;11.614;2024-03-23T11:47:45;2.05;;;0.43;;
72394;SDS011;60384;48.152;11.614;2024-03-23T11:50:55;1.98;;;0.85;;
72394;SDS011;60384;48.152;11.614;2024-03-23T11:54:24;2.45;;;0.90;;
72394;SDS011;60384;48.152;11.614;2024-03-23T11:57:45;0.93;;;0.50;;
72394;SDS011;60384;48.152;11.614;2024-03-23T12:01:01;2.15;;;0.95;;
72394;SDS011;60384;48.152;11.614;2024-03-23T12:04:27;2.70;;;0.93;;
72394;SDS011;60384;48.152;11.614;2024-03-23T12:07:32;1.73;;;0.73;;
72394;SDS011;60384;48.152;11.614;2024-03-23T12:10:47;2.78;;;1.35;;
72394;SDS011;60384;48.152;11.614;2024-03-23T12:14:05;3.50;;;1.25;;
72394;SDS011;60384;48.152;11.614;2024-03-23T12:21:19;3.42;;;1.35;;
72394;SDS011;60384;48.152;11.614;2024-03-23T12:24:30;3.17;;;1.20;;
72394;SDS011;60384;48.152;11.614;2024-03-23T12:28:01;3.45;;;1.10;;
72394;SDS011;60384;48.152;11.614;2024-03-23T12:31:15;1.08;;;0.60;;
72394;SDS011;60384;48.152;11.614;2024-03-23T12:34:23;4.35;;;1.20;;
72394;SDS011;60384;48.152;11.614;2024-03-23T12:37:45;3.83;;;0.85;;
72394;SDS011;60384;48.152;11.614;2024-03-23T12:40:49;3.22;;;1.00;;
72394;SDS011;60384;48.152;11.614;2024-03-23T12:43:54;3.60;;;1.23;;
72394;SDS011;60384;48.152;11.614;2024-03-23T12:46:59;2.00;;;0.88;;
72394;SDS011;60384;48.152;11.614;2024-03-23T12:50:01;5.60;;;1.45;;
72394;SDS011;60384;48.152;11.614;2024-03-23T12:53:05;3.42;;;1.10;;
72394;SDS011;60384;48.152;11.614;2024-03-23T12:56:07;2.45;;;1.00;;
72394;SDS011;60384;48.152;11.614;2024-03-23T12:59:12;5.00;;;1.30;;
72394;SDS011;60384;48.152;11.614;2024-03-23T13:05:31;4.25;;;1.50;;
72394;SDS011;60384;48.152;11.614;2024-03-23T13:08:34;4.55;;;1.60;;
72394;SDS011;60384;48.152;11.614;2024-03-23T13:11:45;4.07;;;1.30;;
72394;SDS011;60384;48.152;11.614;2024-03-23T13:14:48;4.22;;;1.48;;
72394;SDS011;60384;48.152;11.614;2024-03-23T13:17:52;3.08;;;1.35;;
72394;SDS011;60384;48.152;11.614;2024-03-23T13:21:03;5.10;;;1.60;;
72394;SDS011;60384;48.152;11.614;2024-03-23T13:24:07;3.42;;;1.40;;
72394;SDS011;60384;48.152;11.614;2024-03-23T13:27:16;3.05;;;1.50;;
72394;SDS011;60384;48.152;11.614;2024-03-23T13:30:31;7.15;;;1.60;;
72394;SDS011;60384;48.152;11.614;2024-03-23T13:37:35;4.05;;;1.30;;
72394;SDS011;60384;48.152;11.614;2024-03-23T13:40:56;5.85;;;1.63;;
72394;SDS011;60384;48.152;11.614;2024-03-23T13:47:28;2.70;;;0.98;;
72394;SDS011;60384;48.152;11.614;2024-03-23T13:50:35;6.00;;;1.77;;
72394;SDS011;60384;48.152;11.614;2024-03-23T13:53:43;4.50;;;1.33;;
72394;SDS011;60384;48.152;11.614;2024-03-23T13:56:50;5.15;;;1.48;;
72394;SDS011;60384;48.152;11.614;2024-03-23T13:59:55;4.35;;;1.33;;
72394;SDS011;60384;48.152;11.614;2024-03-23T14:03:02;3.85;;;1.48;;
72394;SDS011;60384;48.152;11.614;2024-03-23T14:06:09;6.70;;;2.08;;
72394;SDS011;60384;48.152;11.614;2024-03-23T14:09:18;1.77;;;0.80;;
72394;SDS011;60384;48.152;11.614;2024-03-23T14:12:37;5.18;;;1.45;;
72394;SDS011;60384;48.152;11.614;2024-03-23T14:15:48;6.88;;;2.17;;
72394;SDS011;60384;48.152;11.614;2024-03-23T14:19:08;5.30;;;1.48;;
72394;SDS011;60384;48.152;11.614;2024-03-23T14:22:19;6.90;;;2.83;;
72394;SDS011;60384;48.152;11.614;2024-03-23T14:25:34;7.28;;;2.53;;
72394;SDS011;60384;48.152;11.614;2024-03-23T14:32:14;5.80;;;2.50;;
72394;SDS011;60384;48.152;11.614;2024-03-23T14:35:16;4.50;;;1.65;;
72394;SDS011;60384;48.152;11.614;2024-03-23T14:38:21;4.38;;;1.63;;
72394;SDS011;60384;48.152;11.614;2024-03-23T14:41:25;1.02;;;0.63;;
72394;SDS011;60384;48.152;11.614;2024-03-23T14:44:39;1.53;;;0.90;;
72394;SDS011;60384;48.152;11.614;2024-03-23T14:47:54;2.35;;;1.10;;
72394;SDS011;60384;48.152;11.614;2024-03-23T14:50:56;4.70;;;1.40;;
72394;SDS011;60384;48.152;11.614;2024-03-23T14:54:01;3.45;;;1.08;;
72394;SDS011;60384;48.152;11.614;2024-03-23T14:57:06;1.40;;;0.43;;
72394;SDS011;60384;48.152;11.614;2024-03-23T15:00:11;3.90;;;0.90;;
72394;SDS011;60384;48.152;11.614;2024-03-23T15:03:22;4.65;;;1.00;;
72394;SDS011;60384;48.152;11.614;2024-03-23T15:06:27;4.60;;;1.13;;
72394;SDS011;60384;48.152;11.614;2024-03-23T15:09:35;5.38;;;1.30;;
72394;SDS011;60384;48.152;11.614;2024-03-23T15:12:36;2.75;;;0.98;;
72394;SDS011;60384;48.152;11.614;2024-03-23T15:15:51;4.90;;;1.10;;
72394;SDS011;60384;48.152;11.614;2024-03-23T15:19:01;3.65;;;1.23;;
72394;SDS011;60384;48.152;11.614;2024-03-23T15:22:02;1.95;;;0.77;;
72394;SDS011;60384;48.152;11.614;2024-03-23T15:25:06;6.03;;;1.65;;
72394;SDS011;60384;48.152;11.614;2024-03-23T15:28:16;4.88;;;1.30;;
72394;SDS011;60384;48.152;11.614;2024-03-23T15:31:26;11.85;;;4.40;;
72394;SDS011;60384;48.152;11.614;2024-03-23T15:38:07;5.35;;;1.20;;
72394;SDS011;60384;48.152;11.614;2024-03-23T15:44:56;6.15;;;1.65;;
72394;SDS011;60384;48.152;11.614;2024-03-23T15:48:22;6.03;;;1.42;;
72394;SDS011;60384;48.152;11.614;2024-03-23T15:51:30;5.90;;;1.60;;
72394;SDS011;60384;48.152;11.614;2024-03-23T15:54:44;5.53;;;1.70;;
72394;SDS011;60384;48.152;11.614;2024-03-23T15:58:13;3.07;;;1.00;;
72394;SDS011;60384;48.152;11.614;2024-03-23T16:01:24;4.20;;;1.42;;
72394;SDS011;60384;48.152;11.614;2024-03-23T16:04:30;5.72;;;1.83;;
72394;SDS011;60384;48.152;11.614;2024-03-23T16:07:42;4.07;;;1.30;;
72394;SDS011;60384;48.152;11.614;2024-03-23T16:10:46;4.65;;;1.67;;
72394;SDS011;60384;48.152;11.614;2024-03-23T16:14:23;6.18;;;1.70;;
72394;SDS011;60384;48.152;11.614;2024-03-23T16:17:32;7.53;;;1.70;;
72394;SDS011;60384;48.152;11.614;2024-03-23T16:24:09;4.50;;;1.58;;
72394;SDS011;60384;48.152;11.614;2024-03-23T16:27:15;8.00;;;1.58;;
72394;SDS011;60384;48.152;11.614;2024-03-23T16:30:20;4.03;;;1.60;;
72394;SDS011;60384;48.152;11.614;2024-03-23T16:36:44;6.07;;;1.88;;
72394;SDS011;60384;48.152;11.614;2024-03-23T16:39:55;5.82;;;2.00;;
72394;SDS011;60384;48.152;11.614;2024-03-23T16:43:09;6.07;;;1.80;;
72394;SDS011;60384;48.152;11.614;2024-03-23T16:49:20;4.05;;;1.55;;
72394;SDS011;60384;48.152;11.614;2024-03-23T16:52:23;6.87;;;1.97;;
72394;SDS011;60384;48.152;11.614;2024-03-23T16:55:25;6.05;;;2.55;;
72394;SDS011;60384;48.152;11.614;2024-03-23T16:58:30;6.87;;;1.90;;
72394;SDS011;60384;48.152;11.614;2024-03-23T17:01:36;5.75;;;1.95;;
72394;SDS011;60384;48.152;11.614;2024-03-23T17:04:39;4.65;;;1.60;;
72394;SDS011;60384;48.152;11.614;2024-03-23T17:07:49;4.28;;;1.67;;
72394;SDS011;60384;48.152;11.614;2024-03-23T17:10:57;5.13;;;1.48;;
72394;SDS011;60384;48.152;11.614;2024-03-23T17:14:11;8.82;;;1.98;;
72394;SDS011;60384;48.152;11.614;2024-03-23T17:17:15;5.28;;;1.70;;
72394;SDS011;60384;48.152;11.614;2024-03-23T17:20:21;5.38;;;1.90;;
72394;SDS011;60384;48.152;11.614;2024-03-23T17:23:31;4.05;;;1.40;;
72394;SDS011;60384;48.152;11.614;2024-03-23T17:26:35;5.63;;;1.77;;
72394;SDS011;60384;48.152;11.614;2024-03-23T17:29:40;5.07;;;1.40;;
72394;SDS011;60384;48.152;11.614;2024-03-23T17:33:09;4.30;;;1.20;;
72394;SDS011;60384;48.152;11.614;2024-03-23T17:36:26;3.03;;;0.95;;
72394;SDS011;60384;48.152;11.614;2024-03-23T17:39:36;2.85;;;1.00;;
72394;SDS011;60384;48.152;11.614;2024-03-23T17:42:43;3.20;;;0.82;;
72394;SDS011;60384;48.152;11.614;2024-03-23T17:46:01;2.03;;;0.90;;
72394;SDS011;60384;48.152;11.614;2024-03-23T17:49:10;2.58;;;0.90;;
72394;SDS011;60384;48.152;11.614;2024-03-23T17:52:13;3.07;;;1.40;;
72394;SDS011;60384;48.152;11.614;2024-03-23T17:55:20;2.28;;;0.70;;
72394;SDS011;60384;48.152;11.614;2024-03-23T17:58:22;1.42;;;0.70;;
72394;SDS011;60384;48.152;11.614;2024-03-23T18:01:28;1.40;;;0.60;;
72394;SDS011;60384;48.152;11.614;2024-03-23T18:04:37;3.22;;;1.33;;
72394;SDS011;60384;48.152;11.614;2024-03-23T18:07:38;3.15;;;1.08;;
72394;SDS011;60384;48.152;11.614;2024-03-23T18:10:47;1.10;;;0.45;;
72394;SDS011;60384;48.152;11.614;2024-03-23T18:13:51;3.70;;;1.10;;
72394;SDS011;60384;48.152;11.614;2024-03-23T18:17:02;4.15;;;1.30;;
72394;SDS011;60384;48.152;11.614;2024-03-23T18:20:09;7.15;;;1.67;;
72394;SDS011;60384;48.152;11.614;2024-03-23T18:23:24;2.70;;;0.82;;
72394;SDS011;60384;48.152;11.614;2024-03-23T18:26:45;1.15;;;0.50;;
72394;SDS011;60384;48.152;11.614;2024-03-23T18:30:27;4.03;;;1.27;;
72394;SDS011;60384;48.152;11.614;2024-03-23T18:33:34;1.10;;;0.60;;
72394;SDS011;60384;48.152;11.614;2024-03-23T18:36:39;2.13;;;0.57;;
72394;SDS011;60384;48.152;11.614;2024-03-23T18:39:58;2.40;;;0.80;;
72394;SDS011;60384;48.152;11.614;2024-03-23T18:43:05;1.38;;;0.60;;
72394;SDS011;60384;48.152;11.614;2024-03-23T18:46:18;1.27;;;0.43;;
72394;SDS011;60384;48.152;11.614;2024-03-23T18:49:23;1.60;;;0.55;;
72394;SDS011;60384;48.152;11.614;2024-03-23T18:55:27;1.38;;;0.80;;
72394;SDS011;60384;48.152;11.614;2024-03-23T19:01:31;1.60;;;0.60;;
72394;SDS011;60384;48.152;11.614;2024-03-23T19:04:34;1.63;;;0.63;;
72394;SDS011;60384;48.152;11.614;2024-03-23T19:10:41;1.87;;;0.93;;
72394;SDS011;60384;48.152;11.614;2024-03-23T19:13:45;2.05;;;0.90;;
72394;SDS011;60384;48.152;11.614;2024-03-23T19:16:47;3.28;;;0.90;;
72394;SDS011;60384;48.152;11.614;2024-03-23T19:19:48;3.42;;;1.33;;
72394;SDS011;60384;48.152;11.614;2024-03-23T19:22:50;4.95;;;1.30;;
72394;SDS011;60384;48.152;11.614;2024-03-23T19:25:52;5.00;;;1.50;;
72394;SDS011;60384;48.152;11.614;2024-03-23T19:28:56;1.63;;;0.90;;
72394;SDS011;60384;48.152;11.614;2024-03-23T19:32:00;5.47;;;1.48;;
72394;SDS011;60384;48.152;11.614;2024-03-23T19:35:31;5.20;;;1.50;;
72394;SDS011;60384;48.152;11.614;2024-03-23T19:38:37;2.40;;;1.17;;
72394;SDS011;60384;48.152;11.614;2024-03-23T19:41:41;3.45;;;1.13;;
72394;SDS011;60384;48.152;11.614;2024-03-23T19:44:46;3.08;;;0.80;;
72394;SDS011;60384;48.152;11.614;2024-03-23T19:52:32;4.38;;;1.85;;
72394;SDS011;60384;48.152;11.614;2024-03-23T19:56:12;6.88;;;1.30;;
72394;SDS011;60384;48.152;11.614;2024-03-23T19:59:19;4.30;;;1.52;;
72394;SDS011;60384;48.152;11.614;2024-03-23T20:02:23;3.60;;;1.35;;
72394;SDS011;60384;48.152;11.614;2024-03-23T20:05:24;8.30;;;2.00;;
72394;SDS011;60384;48.152;11.614;2024-03-23T20:08:33;7.20;;;2.08;;
72394;SDS011;60384;48.152;11.614;2024-03-23T20:11:36;2.80;;;1.30;;
72394;SDS011;60384;48.152;11.614;2024-03-23T20:14:49;5.15;;;1.50;;
72394;SDS011;60384;48.152;11.614;2024-03-23T20:18:03;5.90;;;1.70;;
72394;SDS011;60384;48.152;11.614;2024-03-23T20:21:18;2.72;;;1.08;;
72394;SDS011;60384;48.152;11.614;2024-03-23T20:24:53;3.85;;;1.27;;
72394;SDS011;60384;48.152;11.614;2024-03-23T20:28:11;4.72;;;1.75;;
72394;SDS011;60384;48.152;11.614;2024-03-23T20:31:23;5.57;;;1.50;;
72394;SDS011;60384;48.152;11.614;2024-03-23T20:34:34;3.53;;;1.50;;
72394;SDS011;60384;48.152;11.614;2024-03-23T20:37:47;4.68;;;1.70;;
72394;SDS011;60384;48.152;11.614;2024-03-23T20:41:21;4.70;;;1.92;;
72394;SDS011;60384;48.152;11.614;2024-03-23T20:45:02;4.15;;;1.40;;
72394;SDS011;60384;48.152;11.614;2024-03-23T20:48:33;4.82;;;1.50;;
72394;SDS011;60384;48.152;11.614;2024-03-23T20:51:42;5.35;;;1.75;;
72394;SDS011;60384;48.152;11.614;2024-03-23T20:54:47;3.38;;;1.50;;
72394;SDS011;60384;48.152;11.614;2024-03-23T20:57:51;3.63;;;1.50;;
72394;SDS011;60384;48.152;11.614;2024-03-23T21:00:58;3.92;;;1.50;;
72394;SDS011;60384;48.152;11.614;2024-03-23T21:04:14;5.10;;;1.70;;
72394;SDS011;60384;48.152;11.614;2024-03-23T21:08:15;2.88;;;1.15;;
72394;SDS011;60384;48.152;11.614;2024-03-23T21:11:39;3.13;;;1.50;;
72394;SDS011;60384;48.152;11.614;2024-03-23T21:14:44;5.38;;;1.80;;
72394;SDS011;60384;48.152;11.614;2024-03-23T21:17:55;5.82;;;1.58;;
72394;SDS011;60384;48.152;11.614;2024-03-23T21:21:02;3.25;;;1.08;;
72394;SDS011;60384;48.152;11.614;2024-03-23T21:24:19;3.42;;;1.40;;
72394;SDS011;60384;48.152;11.614;2024-03-23T21:27:26;4.00;;;1.50;;
72394;SDS011;60384;48.152;11.614;2024-03-23T21:30:29;3.10;;;1.13;;
72394;SDS011;60384;48.152;11.614;2024-03-23T21:33:33;4.50;;;1.40;;
72394;SDS011;60384;48.152;11.614;2024-03-23T21:36:34;4.38;;;1.23;;
72394;SDS011;60384;48.152;11.614;2024-03-23T21:39:38;3.05;;;1.42;;
72394;SDS011;60384;48.152;11.614;2024-03-23T21:42:44;3.25;;;1.25;;
72394;SDS011;60384;48.152;11.614;2024-03-23T21:45:56;5.60;;;1.17;;
72394;SDS011;60384;48.152;11.614;2024-03-23T21:49:00;6.03;;;1.35;;
72394;SDS011;60384;48.152;11.614;2024-03-23T21:52:05;0.82;;;0.32;;
72394;SDS011;60384;48.152;11.614;2024-03-23T21:55:08;2.47;;;1.00;;
72394;SDS011;60384;48.152;11.614;2024-03-23T21:58:11;2.08;;;0.70;;
72394;SDS011;60384;48.152;11.614;2024-03-23T22:01:12;1.40;;;0.55;;
72394;SDS011;60384;48.152;11.614;2024-03-23T22:04:17;2.25;;;0.90;;
72394;SDS011;60384;48.152;11.614;2024-03-23T22:10:46;2.45;;;0.98;;